createdAt,value
2018-11-26T00:00:36.255Z,7.61
2018-11-26T00:03:09.030Z,7.61
2018-11-26T00:05:38.996Z,7.60
2018-11-26T00:08:12.419Z,7.75
2018-11-26T00:10:52.327Z,7.72
2018-11-26T00:13:21.463Z,7.60
2018-11-26T00:15:50.491Z,7.44
2018-11-26T00:18:19.541Z,7.29
2018-11-26T00:20:48.538Z,7.32
2018-11-26T00:23:17.648Z,7.45
2018-11-26T00:25:46.706Z,7.40
2018-11-26T00:28:15.770Z,7.21
2018-11-26T00:30:44.560Z,7.04
2018-11-26T00:33:13.573Z,7.05
2018-11-26T00:35:42.841Z,7.01
2018-11-26T00:38:11.685Z,7.16
2018-11-26T00:40:40.735Z,7.28
2018-11-26T00:43:09.658Z,7.22
2018-11-26T00:45:38.719Z,7.21
2018-11-26T00:48:07.663Z,7.19
2018-11-26T00:50:36.839Z,7.32
2018-11-26T00:53:06.548Z,7.31
2018-11-26T00:55:35.722Z,7.30
2018-11-26T00:58:04.713Z,7.50
2018-11-26T01:00:33.807Z,7.51
2018-11-26T01:03:02.992Z,7.31
2018-11-26T01:05:35.622Z,7.36
2018-11-26T01:08:04.843Z,7.40
2018-11-26T01:10:33.922Z,7.47
2018-11-26T01:13:03.057Z,7.47
2018-11-26T01:15:31.982Z,7.44
2018-11-26T01:18:01.243Z,7.54
2018-11-26T01:20:30.298Z,7.65
2018-11-26T01:22:59.414Z,7.54
2018-11-26T01:25:28.590Z,7.59
2018-11-26T01:27:57.621Z,7.58
2018-11-26T01:30:26.820Z,7.53
2018-11-26T01:32:55.775Z,7.56
2018-11-26T01:35:24.941Z,7.42
2018-11-26T01:37:53.999Z,7.28
2018-11-26T01:40:27.662Z,7.16
2018-11-26T01:42:56.545Z,7.06
2018-11-26T01:45:25.644Z,7.01
2018-11-26T01:47:54.643Z,6.89
2018-11-26T01:50:23.778Z,6.85
2018-11-26T01:52:52.925Z,6.87
2018-11-26T01:55:21.735Z,6.98
2018-11-26T01:57:50.807Z,7.06
2018-11-26T02:00:21.936Z,7.14
2018-11-26T02:02:51.132Z,7.27
2018-11-26T02:05:20.269Z,7.27
2018-11-26T02:07:49.158Z,7.32
2018-11-26T02:10:19.367Z,7.34
2018-11-26T02:12:48.526Z,7.43
2018-11-26T02:15:38.292Z,7.50
2018-11-26T02:18:08.227Z,7.52
2018-11-26T02:20:37.166Z,7.40
2018-11-26T02:23:06.410Z,7.47
2018-11-26T02:25:35.577Z,7.56
2018-11-26T02:28:04.370Z,7.58
2018-11-26T02:30:33.344Z,7.55
2018-11-26T02:33:02.448Z,7.61
2018-11-26T02:35:31.235Z,7.61
2018-11-26T02:38:00.526Z,7.68
2018-11-26T02:40:30.724Z,7.73
2018-11-26T02:42:59.566Z,7.58
2018-11-26T02:45:30.254Z,7.62
2018-11-26T02:47:59.216Z,7.55
2018-11-26T02:50:28.357Z,7.57
2018-11-26T02:52:57.369Z,7.61
2018-11-26T02:55:27.274Z,7.54
2018-11-26T02:57:56.422Z,7.38
2018-11-26T03:00:25.559Z,7.31
2018-11-26T03:02:54.629Z,7.21
2018-11-26T03:05:27.156Z,7.15
2018-11-26T03:07:56.316Z,6.98
2018-11-26T03:10:25.619Z,7.06
2018-11-26T03:12:54.478Z,6.93
2018-11-26T03:15:23.586Z,7.07
2018-11-26T03:17:52.507Z,6.96
2018-11-26T03:20:21.460Z,7.00
2018-11-26T03:22:50.366Z,7.14
2018-11-26T03:25:19.506Z,7.24
2018-11-26T03:27:48.682Z,7.27
2018-11-26T03:30:19.883Z,7.30
2018-11-26T03:32:49.149Z,7.29
2018-11-26T03:35:18.259Z,7.34
2018-11-26T03:37:47.074Z,7.36
2018-11-26T03:40:16.162Z,7.32
2018-11-26T03:42:45.454Z,7.19
2018-11-26T03:45:18.730Z,7.18
2018-11-26T03:47:47.935Z,7.19
2018-11-26T03:50:17.126Z,7.15
2018-11-26T03:52:46.700Z,7.17
2018-11-26T03:55:15.679Z,7.23
2018-11-26T03:57:44.736Z,7.18
2018-11-26T04:00:15.354Z,7.15
2018-11-26T04:02:44.509Z,7.17
2018-11-26T04:05:13.669Z,7.18
2018-11-26T04:07:42.846Z,7.04
2018-11-26T04:10:13.653Z,7.13
2018-11-26T04:12:42.729Z,7.25
2018-11-26T04:15:13.042Z,7.16
2018-11-26T04:17:42.145Z,7.11
2018-11-26T04:20:11.322Z,7.11
2018-11-26T04:22:40.490Z,7.16
2018-11-26T04:25:10.214Z,7.21
2018-11-26T04:27:38.978Z,7.27
2018-11-26T04:30:11.171Z,7.31
2018-11-26T04:32:40.747Z,7.35
2018-11-26T04:35:10.233Z,7.17
2018-11-26T04:37:39.532Z,7.13
2018-11-26T04:40:10.173Z,7.16
2018-11-26T04:42:39.337Z,6.99
2018-11-26T04:45:09.791Z,6.87
2018-11-26T04:47:38.667Z,6.91
2018-11-26T04:50:10.125Z,6.92
2018-11-26T04:52:39.152Z,6.76
2018-11-26T04:55:09.057Z,6.62
2018-11-26T04:57:42.172Z,6.50
2018-11-26T05:00:10.058Z,6.42
2018-11-26T05:02:39.374Z,6.37
2018-11-26T05:05:08.984Z,6.49
2018-11-26T05:07:37.835Z,6.51
2018-11-26T05:10:08.661Z,6.43
2018-11-26T05:12:37.890Z,6.41
2018-11-26T05:15:08.426Z,6.48
2018-11-26T05:17:37.346Z,6.47
2018-11-26T05:20:08.302Z,6.49
2018-11-26T05:22:37.434Z,6.56
2018-11-26T05:25:08.047Z,6.55
2018-11-26T05:27:37.126Z,6.72
2018-11-26T05:30:08.049Z,6.71
2018-11-26T05:32:37.203Z,6.84
2018-11-26T05:35:07.467Z,6.91
2018-11-26T05:37:36.552Z,6.88
2018-11-26T05:40:07.448Z,6.82
2018-11-26T05:42:36.715Z,6.95
2018-11-26T05:45:07.346Z,7.12
2018-11-26T05:47:36.487Z,7.00
2018-11-26T05:50:06.878Z,6.88
2018-11-26T05:52:36.042Z,6.90
2018-11-26T05:55:05.282Z,7.01
2018-11-26T05:57:34.498Z,7.02
2018-11-26T06:00:03.300Z,7.06
2018-11-26T06:02:32.223Z,7.03
2018-11-26T06:05:01.398Z,6.93
2018-11-26T06:07:30.509Z,6.89
2018-11-26T06:09:59.618Z,6.83
2018-11-26T06:12:28.452Z,6.88
2018-11-26T06:14:57.503Z,6.90
2018-11-26T06:17:26.532Z,6.87
2018-11-26T06:19:55.430Z,7.00
2018-11-26T06:22:24.430Z,7.02
2018-11-26T06:24:53.611Z,7.22
2018-11-26T06:27:22.723Z,7.08
2018-11-26T06:29:51.904Z,6.94
2018-11-26T06:32:21.004Z,7.16
2018-11-26T06:34:50.086Z,7.15
2018-11-26T06:37:19.302Z,7.18
2018-11-26T06:39:48.166Z,7.27
2018-11-26T06:42:17.344Z,7.33
2018-11-26T06:44:46.382Z,7.23
2018-11-26T06:47:15.623Z,7.12
2018-11-26T06:49:44.580Z,7.10
2018-11-26T06:52:13.458Z,7.19
2018-11-26T06:54:42.644Z,7.25
2018-11-26T06:57:11.694Z,7.24
2018-11-26T06:59:40.885Z,7.20
2018-11-26T07:02:09.759Z,7.29
2018-11-26T07:04:38.814Z,7.38
2018-11-26T07:07:07.892Z,7.41
2018-11-26T07:09:37.076Z,7.51
2018-11-26T07:12:06.577Z,7.50
2018-11-26T07:14:35.674Z,7.55
2018-11-26T07:17:04.803Z,7.51
2018-11-26T07:19:33.853Z,7.50
2018-11-26T07:22:02.847Z,7.55
2018-11-26T07:24:31.899Z,7.50
2018-11-26T07:27:01.084Z,7.53
2018-11-26T07:29:30.037Z,7.66
2018-11-26T07:31:58.923Z,7.73
2018-11-26T07:34:28.087Z,7.75
2018-11-26T07:36:57.206Z,7.81
2018-11-26T07:39:26.349Z,7.91
2018-11-26T07:41:55.302Z,7.88
2018-11-26T07:44:24.570Z,7.93
2018-11-26T07:46:53.796Z,7.96
2018-11-26T07:49:23.394Z,8.02
2018-11-26T07:51:51.832Z,8.12
2018-11-26T07:54:21.014Z,7.94
2018-11-26T07:56:50.055Z,7.85
2018-11-26T07:59:19.162Z,7.90
2018-11-26T08:01:48.195Z,7.80
2018-11-26T08:04:16.955Z,7.75
2018-11-26T08:06:46.073Z,7.71
2018-11-26T08:09:15.180Z,7.64
2018-11-26T08:11:44.183Z,7.64
2018-11-26T08:14:13.378Z,7.66
2018-11-26T08:16:42.741Z,7.71
2018-11-26T08:19:11.978Z,7.70
2018-11-26T08:21:40.915Z,7.68
2018-11-26T08:24:10.250Z,7.70
2018-11-26T08:26:39.302Z,7.74
2018-11-26T08:29:08.347Z,7.75
2018-11-26T08:31:37.645Z,7.71
2018-11-26T08:34:07.141Z,7.74
2018-11-26T08:36:40.910Z,7.84
2018-11-26T08:39:16.458Z,7.80
2018-11-26T08:41:50.570Z,7.79
2018-11-26T08:44:28.500Z,7.84
2018-11-26T08:47:03.885Z,7.97
2018-11-26T08:49:34.128Z,8.08
2018-11-26T08:52:03.310Z,8.13
2018-11-26T08:54:32.154Z,8.23
2018-11-26T08:57:00.966Z,8.42
2018-11-26T08:59:30.188Z,8.59
2018-11-26T09:02:01.187Z,8.72
2018-11-26T09:04:32.187Z,8.86
2018-11-26T09:07:01.318Z,9.07
2018-11-26T09:09:32.966Z,9.24
2018-11-26T09:11:59.583Z,9.32
2018-11-26T09:14:28.547Z,9.36
2018-11-26T09:16:57.835Z,9.43
2018-11-26T09:19:27.008Z,9.48
2018-11-26T09:21:56.182Z,9.56
2018-11-26T09:24:25.287Z,9.55
2018-11-26T09:26:54.147Z,9.63
2018-11-26T09:29:23.159Z,9.60
2018-11-26T09:31:52.234Z,9.50
2018-11-26T09:34:21.421Z,9.55
2018-11-26T09:36:50.721Z,9.57
2018-11-26T09:39:19.543Z,9.52
2018-11-26T09:41:48.335Z,9.49
2018-11-26T09:44:17.294Z,9.43
2018-11-26T09:46:46.471Z,9.47
2018-11-26T09:49:15.602Z,9.54
2018-11-26T09:51:44.475Z,9.59
2018-11-26T09:54:13.644Z,9.56
2018-11-26T09:56:42.740Z,9.31
2018-11-26T09:59:11.876Z,9.38
2018-11-26T10:01:41.005Z,9.21
2018-11-26T10:04:09.914Z,9.25
2018-11-26T10:06:38.831Z,9.18
2018-11-26T10:09:10.435Z,9.12
2018-11-26T10:11:39.634Z,9.09
2018-11-26T10:14:09.233Z,9.05
2018-11-26T10:16:38.238Z,9.06
2018-11-26T10:19:07.478Z,9.12
2018-11-26T10:21:36.682Z,9.30
2018-11-26T10:24:05.958Z,9.44
2018-11-26T10:26:35.126Z,9.31
2018-11-26T10:29:04.360Z,9.13
2018-11-26T10:31:33.643Z,8.98
2018-11-26T10:34:02.562Z,8.99
2018-11-26T10:36:31.831Z,9.18
2018-11-26T10:39:00.691Z,9.28
2018-11-26T10:41:29.563Z,9.52
2018-11-26T10:43:58.535Z,9.54
2018-11-26T10:46:27.727Z,9.55
2018-11-26T10:48:56.714Z,9.57
2018-11-26T10:51:25.754Z,9.42
2018-11-26T10:53:54.899Z,9.44
2018-11-26T10:56:24.062Z,9.40
2018-11-26T10:58:52.986Z,9.41
2018-11-26T11:01:27.212Z,9.42
2018-11-26T11:03:56.194Z,9.57
2018-11-26T11:06:25.406Z,9.43
2018-11-26T11:08:54.648Z,9.54
2018-11-26T11:11:23.865Z,9.51
2018-11-26T11:13:52.854Z,9.47
2018-11-26T11:16:22.074Z,9.65
2018-11-26T11:18:51.390Z,9.63
2018-11-26T11:21:20.376Z,9.52
2018-11-26T11:23:49.628Z,9.52
2018-11-26T11:26:19.046Z,9.55
2018-11-26T11:28:47.924Z,9.39
2018-11-26T11:31:16.900Z,9.34
2018-11-26T11:33:45.969Z,9.16
2018-11-26T11:36:15.104Z,9.04
2018-11-26T11:38:44.381Z,9.00
2018-11-26T11:41:13.127Z,9.00
2018-11-26T11:43:41.968Z,9.01
2018-11-26T11:46:10.968Z,8.99
2018-11-26T11:48:40.081Z,9.07
2018-11-26T11:51:09.156Z,9.10
2018-11-26T11:53:38.191Z,9.13
2018-11-26T11:56:07.551Z,9.15
2018-11-26T11:58:36.676Z,9.18
2018-11-26T12:01:10.522Z,9.30
2018-11-26T12:03:35.146Z,9.47
2018-11-26T12:06:04.324Z,9.51
2018-11-26T12:08:33.272Z,9.49
2018-11-26T12:11:02.122Z,9.58
2018-11-26T12:13:31.104Z,9.72
2018-11-26T12:16:00.069Z,10.00
2018-11-26T12:18:29.151Z,10.13
2018-11-26T12:20:57.972Z,10.12
2018-11-26T12:23:26.837Z,10.17
2018-11-26T12:25:56.075Z,10.26
2018-11-26T12:28:25.172Z,10.25
2018-11-26T12:30:54.258Z,10.30
2018-11-26T12:33:23.371Z,10.29
2018-11-26T12:35:52.551Z,10.15
2018-11-26T12:38:21.792Z,10.09
2018-11-26T12:40:50.961Z,10.07
2018-11-26T12:43:20.248Z,10.09
2018-11-26T12:45:49.229Z,10.16
2018-11-26T12:48:18.172Z,10.35
2018-11-26T12:50:47.043Z,10.47
2018-11-26T12:53:16.361Z,10.39
2018-11-26T12:55:45.486Z,10.47
2018-11-26T12:58:14.616Z,10.54
2018-11-26T13:00:43.747Z,10.48
2018-11-26T13:03:13.948Z,10.53
2018-11-26T13:05:42.940Z,10.56
2018-11-26T13:08:12.069Z,10.72
2018-11-26T13:10:41.092Z,10.75
2018-11-26T13:13:11.009Z,10.91
2018-11-26T13:15:40.330Z,10.74
2018-11-26T13:18:09.612Z,10.54
2018-11-26T13:20:38.909Z,10.46
2018-11-26T13:23:09.221Z,10.41
2018-11-26T13:25:41.677Z,10.33
2018-11-26T13:28:09.201Z,10.22
2018-11-26T13:30:39.474Z,10.33
2018-11-26T13:33:12.841Z,10.34
2018-11-26T13:35:41.936Z,10.44
2018-11-26T13:38:11.168Z,10.60
2018-11-26T13:40:40.417Z,10.67
2018-11-26T13:43:10.646Z,10.69
2018-11-26T13:45:43.672Z,10.76
2018-11-26T13:48:14.055Z,10.74
2018-11-26T13:50:46.936Z,10.82
2018-11-26T13:53:16.005Z,10.77
2018-11-26T13:55:44.864Z,10.65
2018-11-26T13:58:14.140Z,10.39
2018-11-26T14:00:43.031Z,10.19
2018-11-26T14:03:12.252Z,10.01
2018-11-26T14:05:41.343Z,9.93
2018-11-26T14:08:10.425Z,9.90
2018-11-26T14:10:39.341Z,9.89
2018-11-26T14:13:10.924Z,9.93
2018-11-26T14:15:40.037Z,9.79
2018-11-26T14:18:09.166Z,9.75
2018-11-26T14:20:38.432Z,9.79
2018-11-26T14:23:07.789Z,9.81
2018-11-26T14:25:37.068Z,9.83
2018-11-26T14:28:06.395Z,9.85
2018-11-26T14:30:35.699Z,9.80
2018-11-26T14:33:04.647Z,9.75
2018-11-26T14:35:33.727Z,9.72
2018-11-26T14:38:04.502Z,9.66
2018-11-26T14:40:39.381Z,9.65
2018-11-26T14:43:08.477Z,9.64
2018-11-26T14:45:37.512Z,9.69
2018-11-26T14:48:06.910Z,9.61
2018-11-26T14:50:35.970Z,9.50
2018-11-26T14:53:06.209Z,9.46
2018-11-26T14:55:36.792Z,9.45
2018-11-26T14:58:06.464Z,9.44
2018-11-26T15:00:35.553Z,9.38
2018-11-26T15:03:05.349Z,9.51
2018-11-26T15:05:34.459Z,9.60
2018-11-26T15:08:03.592Z,9.63
2018-11-26T15:10:32.921Z,9.65
2018-11-26T15:13:02.063Z,9.59
2018-11-26T15:15:30.868Z,9.71
2018-11-26T15:18:00.104Z,9.71
2018-11-26T15:20:30.210Z,9.71
2018-11-26T15:23:00.812Z,9.68
2018-11-26T15:25:32.840Z,9.68
2018-11-26T15:28:07.741Z,9.62
2018-11-26T15:30:36.593Z,9.69
2018-11-26T15:33:05.880Z,9.63
2018-11-26T15:35:35.868Z,9.69
2018-11-26T15:38:05.051Z,9.66
2018-11-26T15:40:33.944Z,9.67
2018-11-26T15:43:03.020Z,9.68
2018-11-26T15:45:31.982Z,9.63
2018-11-26T15:48:02.204Z,9.64
2018-11-26T15:50:31.439Z,9.52
2018-11-26T15:53:00.320Z,9.66
2018-11-26T15:55:29.295Z,9.70
2018-11-26T15:57:58.616Z,9.70
2018-11-26T16:00:27.481Z,9.76
2018-11-26T16:02:56.696Z,9.58
2018-11-26T16:05:28.940Z,9.64
2018-11-26T16:08:00.322Z,9.79
2018-11-26T16:10:29.445Z,9.78
2018-11-26T16:12:59.877Z,9.74
2018-11-26T16:15:37.563Z,9.64
2018-11-26T16:18:09.367Z,9.56
2018-11-26T16:20:38.538Z,9.49
2018-11-26T16:23:09.243Z,9.68
2018-11-26T16:25:39.895Z,9.75
2018-11-26T16:28:09.253Z,9.72
2018-11-26T16:30:38.422Z,9.78
2018-11-26T16:33:08.055Z,9.75
2018-11-26T16:35:37.202Z,9.59
2018-11-26T16:38:06.898Z,9.55
2018-11-26T16:40:35.956Z,9.58
2018-11-26T16:43:05.184Z,9.65
2018-11-26T16:45:34.370Z,9.62
2018-11-26T16:48:03.820Z,9.62
2018-11-26T16:50:33.967Z,9.87
2018-11-26T16:53:03.118Z,9.91
2018-11-26T16:55:32.662Z,9.90
2018-11-26T16:58:01.775Z,9.70
2018-11-26T17:00:31.432Z,9.81
2018-11-26T17:03:02.239Z,9.72
2018-11-26T17:05:38.264Z,9.53
2018-11-26T17:08:08.843Z,9.61
2018-11-26T17:10:37.756Z,9.64
2018-11-26T17:13:06.931Z,9.59
2018-11-26T17:15:36.280Z,9.44
2018-11-26T17:18:06.197Z,9.44
2018-11-26T17:20:35.928Z,9.61
2018-11-26T17:23:05.144Z,9.60
2018-11-26T17:25:34.460Z,9.55
2018-11-26T17:28:04.397Z,9.53
2018-11-26T17:30:33.541Z,9.58
2018-11-26T17:33:04.485Z,9.54
2018-11-26T17:35:34.011Z,9.43
2018-11-26T17:38:03.109Z,9.31
2018-11-26T17:40:32.254Z,9.32
2018-11-26T17:43:01.281Z,9.29
2018-11-26T17:45:30.389Z,9.27
2018-11-26T17:48:00.348Z,9.26
2018-11-26T17:50:50.803Z,9.24
2018-11-26T17:53:21.153Z,9.22
2018-11-26T17:55:54.336Z,9.16
2018-11-26T17:58:26.547Z,9.11
2018-11-26T18:01:35.185Z,9.07
2018-11-26T18:04:04.936Z,9.13
2018-11-26T18:06:34.182Z,9.12
2018-11-26T18:09:03.486Z,9.12
2018-11-26T18:11:32.444Z,9.21
2018-11-26T18:14:01.395Z,9.21
2018-11-26T18:16:30.211Z,9.25
2018-11-26T18:18:59.324Z,9.29
2018-11-26T18:21:28.100Z,9.29
2018-11-26T18:23:57.369Z,9.28
2018-11-26T18:26:27.168Z,9.28
2018-11-26T18:28:55.920Z,9.30
2018-11-26T18:31:25.039Z,9.30
2018-11-26T18:33:54.175Z,9.27
2018-11-26T18:36:23.369Z,9.30
2018-11-26T18:38:52.597Z,9.25
2018-11-26T18:41:21.859Z,9.23
2018-11-26T18:43:51.205Z,9.26
2018-11-26T18:46:20.316Z,9.24
2018-11-26T18:48:49.748Z,9.28
2018-11-26T18:51:19.160Z,9.24
2018-11-26T18:53:48.235Z,9.21
2018-11-26T18:56:17.384Z,9.35
2018-11-26T18:58:46.541Z,9.42
2018-11-26T19:01:15.685Z,9.48
2018-11-26T19:03:44.827Z,9.60
2018-11-26T19:06:14.036Z,9.69
2018-11-26T19:08:43.224Z,9.63
2018-11-26T19:11:14.112Z,9.55
2018-11-26T19:14:05.206Z,9.56
2018-11-26T19:16:36.590Z,9.60
2018-11-26T19:19:06.156Z,9.55
2018-11-26T19:21:35.247Z,9.52
2018-11-26T19:24:04.596Z,9.42
2018-11-26T19:26:33.891Z,9.35
2018-11-26T19:29:03.105Z,9.38
2018-11-26T19:31:32.284Z,9.42
2018-11-26T19:34:01.155Z,9.41
2018-11-26T19:36:30.279Z,9.53
2018-11-26T19:38:59.184Z,9.49
2018-11-26T19:41:28.436Z,9.41
2018-11-26T19:43:57.685Z,9.54
2018-11-26T19:46:26.872Z,9.52
2018-11-26T19:48:56.196Z,9.48
2018-11-26T19:51:25.073Z,9.27
2018-11-26T19:53:55.323Z,9.31
2018-11-26T19:56:24.485Z,9.42
2018-11-26T19:58:54.594Z,9.52
2018-11-26T20:01:23.677Z,9.46
2018-11-26T20:03:56.800Z,9.61
2018-11-26T20:06:26.475Z,9.50
2018-11-26T20:08:58.048Z,9.44
2018-11-26T20:11:32.951Z,9.60
2018-11-26T20:13:56.324Z,9.62
2018-11-26T20:16:33.491Z,9.55
2018-11-26T20:19:02.400Z,9.47
2018-11-26T20:21:31.644Z,9.55
2018-11-26T20:24:00.804Z,9.53
2018-11-26T20:26:29.988Z,9.40
2018-11-26T20:28:59.314Z,9.45
2018-11-26T20:31:28.184Z,9.48
2018-11-26T20:33:57.376Z,9.38
2018-11-26T20:36:26.539Z,9.27
2018-11-26T20:38:55.691Z,9.43
2018-11-26T20:41:24.513Z,9.39
2018-11-26T20:43:53.808Z,9.38
2018-11-26T20:46:22.616Z,9.35
2018-11-26T20:48:51.667Z,9.27
2018-11-26T20:51:20.789Z,9.31
2018-11-26T20:53:49.712Z,9.28
2018-11-26T20:56:19.183Z,9.20
2018-11-26T20:58:48.440Z,9.21
2018-11-26T21:01:17.536Z,9.17
2018-11-26T21:03:47.040Z,9.13
2018-11-26T21:06:16.098Z,9.11
2018-11-26T21:08:45.445Z,9.18
2018-11-26T21:11:14.780Z,9.25
2018-11-26T21:13:44.053Z,9.18
2018-11-26T21:16:13.442Z,9.09
2018-11-26T21:18:42.780Z,9.09
2018-11-26T21:21:11.887Z,9.25
2018-11-26T21:23:41.277Z,9.42
2018-11-26T21:26:10.583Z,9.46
2018-11-26T21:28:40.072Z,9.42
2018-11-26T21:31:09.327Z,9.43
2018-11-26T21:33:38.884Z,9.64
2018-11-26T21:36:08.170Z,9.69
2018-11-26T21:38:39.224Z,9.60
2018-11-26T21:41:08.522Z,9.52
2018-11-26T21:43:38.123Z,9.63
2018-11-26T21:46:08.567Z,9.62
2018-11-26T21:48:38.184Z,9.53
2018-11-26T21:51:07.520Z,9.27
2018-11-26T21:53:36.843Z,9.18
2018-11-26T21:56:06.052Z,9.30
2018-11-26T21:58:35.315Z,9.19
2018-11-26T22:01:06.770Z,9.36
2018-11-26T22:03:36.433Z,9.41
2018-11-26T22:06:06.075Z,9.34
2018-11-26T22:08:35.520Z,9.38
2018-11-26T22:11:04.921Z,9.24
2018-11-26T22:13:34.185Z,9.25
2018-11-26T22:16:03.436Z,9.36
2018-11-26T22:18:32.653Z,9.29
2018-11-26T22:21:01.856Z,9.18
2018-11-26T22:23:31.239Z,9.06
2018-11-26T22:26:00.625Z,9.17
2018-11-26T22:28:30.118Z,9.16
2018-11-26T22:30:59.068Z,9.11
2018-11-26T22:33:28.300Z,9.08
2018-11-26T22:35:57.547Z,9.12
2018-11-26T22:38:26.497Z,9.08
2018-11-26T22:40:55.696Z,9.05
2018-11-26T22:43:24.884Z,9.04
2018-11-26T22:45:53.888Z,9.05
2018-11-26T22:48:22.992Z,8.98
2018-11-26T22:50:51.922Z,8.93
2018-11-26T22:53:21.249Z,8.84
2018-11-26T22:55:50.500Z,8.84
2018-11-26T22:58:19.598Z,9.14
2018-11-26T23:00:51.071Z,9.15
2018-11-26T23:03:21.500Z,9.11
2018-11-26T23:05:50.307Z,9.19
2018-11-26T23:08:19.527Z,9.17
2018-11-26T23:10:48.331Z,9.11
2018-11-26T23:13:17.450Z,9.16
2018-11-26T23:15:46.537Z,9.07
2018-11-26T23:18:15.632Z,9.09
2018-11-26T23:20:44.830Z,9.17
2018-11-26T23:23:13.528Z,9.14
2018-11-26T23:25:42.760Z,9.05
2018-11-26T23:28:11.676Z,9.05
2018-11-26T23:30:40.813Z,9.18
2018-11-26T23:33:10.195Z,9.24
2018-11-26T23:35:39.199Z,9.26
2018-11-26T23:38:07.953Z,9.31
2018-11-26T23:40:37.320Z,9.30
2018-11-26T23:43:06.907Z,9.22
2018-11-26T23:45:36.257Z,9.18
2018-11-26T23:48:05.592Z,9.11
2018-11-26T23:50:35.012Z,9.10
2018-11-26T23:53:03.899Z,9.04
2018-11-26T23:55:33.095Z,8.96
2018-11-26T23:58:02.164Z,9.06
